createdAt,value
2018-05-29T00:01:04.581Z,20.51
2018-05-29T00:03:32.709Z,20.49
2018-05-29T00:06:00.814Z,20.48
2018-05-29T00:08:28.954Z,20.48
2018-05-29T00:10:57.056Z,20.47
2018-05-29T00:13:25.236Z,20.44
2018-05-29T00:15:53.615Z,20.41
2018-05-29T00:18:21.743Z,20.36
2018-05-29T00:20:49.875Z,20.31
2018-05-29T00:23:17.978Z,20.28
2018-05-29T00:25:46.124Z,20.24
2018-05-29T00:28:14.235Z,20.20
2018-05-29T00:30:42.349Z,20.16
2018-05-29T00:33:10.461Z,20.13
2018-05-29T00:35:38.577Z,20.10
2018-05-29T00:38:06.712Z,20.08
2018-05-29T00:40:34.832Z,20.03
2018-05-29T00:43:02.939Z,19.99
2018-05-29T00:45:31.063Z,19.92
2018-05-29T00:47:59.225Z,19.87
2018-05-29T00:50:27.360Z,19.80
2018-05-29T00:52:55.469Z,19.77
2018-05-29T00:55:35.553Z,19.73
2018-05-29T00:58:03.741Z,19.71
2018-05-29T01:00:31.844Z,19.67
2018-05-29T01:03:00.012Z,19.64
2018-05-29T01:05:28.148Z,19.62
2018-05-29T01:07:56.296Z,19.58
2018-05-29T01:10:24.410Z,19.54
2018-05-29T01:12:52.579Z,19.48
2018-05-29T01:15:20.678Z,19.43
2018-05-29T01:17:48.792Z,19.41
2018-05-29T01:20:16.923Z,19.39
2018-05-29T01:22:45.042Z,19.37
2018-05-29T01:25:13.176Z,19.36
2018-05-29T01:27:41.325Z,19.38
2018-05-29T01:30:09.446Z,19.38
2018-05-29T01:32:37.565Z,19.38
2018-05-29T01:35:05.726Z,19.41
2018-05-29T01:37:33.833Z,19.38
2018-05-29T01:40:01.987Z,19.38
2018-05-29T01:42:30.090Z,19.36
2018-05-29T01:44:58.232Z,19.34
2018-05-29T01:47:26.362Z,19.34
2018-05-29T01:49:54.594Z,19.35
2018-05-29T01:52:22.728Z,19.34
2018-05-29T01:54:50.860Z,19.30
2018-05-29T01:57:19.016Z,19.28
2018-05-29T01:59:47.154Z,19.32
2018-05-29T02:02:15.301Z,19.36
2018-05-29T02:04:43.417Z,19.36
2018-05-29T02:07:11.558Z,19.36
2018-05-29T02:09:39.679Z,19.35
2018-05-29T02:12:07.782Z,19.36
2018-05-29T02:14:35.930Z,19.35
2018-05-29T02:17:04.056Z,19.33
2018-05-29T02:19:32.188Z,19.33
2018-05-29T02:22:00.322Z,19.31
2018-05-29T02:24:28.483Z,19.27
2018-05-29T02:26:56.570Z,19.23
2018-05-29T02:29:24.997Z,19.21
2018-05-29T02:31:53.102Z,19.19
2018-05-29T02:34:21.250Z,19.18
2018-05-29T02:36:49.366Z,19.15
2018-05-29T02:39:17.505Z,19.13
2018-05-29T02:41:45.632Z,19.06
2018-05-29T02:44:13.776Z,19.00
2018-05-29T02:46:41.914Z,18.96
2018-05-29T02:49:10.072Z,18.93
2018-05-29T02:51:38.216Z,18.87
2018-05-29T02:54:06.326Z,18.81
2018-05-29T02:56:34.462Z,18.72
2018-05-29T02:59:02.609Z,18.61
2018-05-29T03:01:30.745Z,18.59
2018-05-29T03:03:58.874Z,18.55
2018-05-29T03:06:27.006Z,18.54
2018-05-29T03:08:55.362Z,18.51
2018-05-29T03:11:23.490Z,18.48
2018-05-29T03:13:51.614Z,18.49
2018-05-29T03:16:19.752Z,18.50
2018-05-29T03:18:47.885Z,18.53
2018-05-29T03:21:16.041Z,18.55
2018-05-29T03:23:44.182Z,18.53
2018-05-29T03:26:12.315Z,18.53
2018-05-29T03:28:40.438Z,18.52
2018-05-29T03:31:08.589Z,18.53
2018-05-29T03:33:36.717Z,18.50
2018-05-29T03:36:04.853Z,18.48
2018-05-29T03:38:33.009Z,18.39
2018-05-29T03:41:01.141Z,18.39
2018-05-29T03:43:29.261Z,18.37
2018-05-29T03:45:57.376Z,18.35
2018-05-29T03:48:25.778Z,18.36
2018-05-29T03:50:53.884Z,18.31
2018-05-29T03:53:22.031Z,18.34
2018-05-29T03:55:50.162Z,18.36
2018-05-29T03:58:18.310Z,18.38
2018-05-29T04:00:46.485Z,18.34
2018-05-29T04:03:14.645Z,18.28
2018-05-29T04:05:42.759Z,18.25
2018-05-29T04:08:10.901Z,18.25
2018-05-29T04:10:39.019Z,18.27
2018-05-29T04:13:07.151Z,18.31
2018-05-29T04:15:35.285Z,18.34
2018-05-29T04:18:03.415Z,18.40
2018-05-29T04:20:31.541Z,18.43
2018-05-29T04:22:59.979Z,18.47
2018-05-29T04:25:28.239Z,18.56
2018-05-29T04:27:56.401Z,18.61
2018-05-29T04:30:24.556Z,18.64
2018-05-29T04:32:52.673Z,18.67
2018-05-29T04:35:20.794Z,18.67
2018-05-29T04:37:48.912Z,18.68
2018-05-29T04:40:17.033Z,18.70
2018-05-29T04:42:45.173Z,18.74
2018-05-29T04:45:13.295Z,18.76
2018-05-29T04:47:41.457Z,18.79
2018-05-29T04:50:09.586Z,18.82
2018-05-29T04:52:37.720Z,18.87
2018-05-29T04:55:05.843Z,18.91
2018-05-29T04:57:34.020Z,18.97
2018-05-29T05:00:02.123Z,19.01
2018-05-29T05:02:30.377Z,19.04
2018-05-29T05:04:58.454Z,19.09
2018-05-29T05:07:26.593Z,19.11
2018-05-29T05:09:54.713Z,19.12
2018-05-29T05:12:22.856Z,19.18
2018-05-29T05:14:50.985Z,19.26
2018-05-29T05:17:19.103Z,19.36
2018-05-29T05:19:47.232Z,19.42
2018-05-29T05:22:15.408Z,19.46
2018-05-29T05:24:43.541Z,19.52
2018-05-29T05:27:11.672Z,19.59
2018-05-29T05:29:39.813Z,19.65
2018-05-29T05:32:07.991Z,19.69
2018-05-29T05:34:36.101Z,19.78
2018-05-29T05:37:04.272Z,19.83
2018-05-29T05:39:32.381Z,19.88
2018-05-29T05:42:00.737Z,19.94
2018-05-29T05:44:28.874Z,20.01
2018-05-29T05:46:57.007Z,20.06
2018-05-29T05:49:25.153Z,20.11
2018-05-29T05:51:53.266Z,20.17
2018-05-29T05:54:21.411Z,20.22
2018-05-29T05:56:49.521Z,20.23
2018-05-29T05:59:17.691Z,20.30
2018-05-29T06:01:45.885Z,20.33
2018-05-29T06:04:13.999Z,20.36
2018-05-29T06:06:42.123Z,20.42
2018-05-29T06:09:10.269Z,20.47
2018-05-29T06:11:38.401Z,20.46
2018-05-29T06:14:06.518Z,20.46
2018-05-29T06:16:34.656Z,20.49
2018-05-29T06:19:02.783Z,20.47
2018-05-29T06:21:31.131Z,20.44
2018-05-29T06:23:59.249Z,20.50
2018-05-29T06:26:27.411Z,20.53
2018-05-29T06:28:55.521Z,20.49
2018-05-29T06:31:23.625Z,20.52
2018-05-29T06:33:51.745Z,20.51
2018-05-29T06:36:19.854Z,20.63
2018-05-29T06:38:47.983Z,20.75
2018-05-29T06:41:16.091Z,20.75
2018-05-29T06:43:44.271Z,20.79
2018-05-29T06:46:12.383Z,20.89
2018-05-29T06:48:40.526Z,20.98
2018-05-29T06:51:08.658Z,21.05
2018-05-29T06:53:37.619Z,21.10
2018-05-29T06:56:05.748Z,21.19
2018-05-29T06:58:33.870Z,21.35
2018-05-29T07:01:01.994Z,21.51
2018-05-29T07:03:30.214Z,21.64
2018-05-29T07:05:58.354Z,21.79
2018-05-29T07:08:26.466Z,21.83
2018-05-29T07:10:54.596Z,21.72
2018-05-29T07:13:22.718Z,21.85
2018-05-29T07:15:50.826Z,21.90
2018-05-29T07:18:18.972Z,21.89
2018-05-29T07:20:47.088Z,21.96
2018-05-29T07:23:15.226Z,22.07
2018-05-29T07:25:43.382Z,22.14
2018-05-29T07:28:11.527Z,22.13
2018-05-29T07:30:39.642Z,22.20
2018-05-29T07:33:07.787Z,22.28
2018-05-29T07:35:35.949Z,22.35
2018-05-29T07:38:04.066Z,22.34
2018-05-29T07:40:32.240Z,22.34
2018-05-29T07:43:00.330Z,22.41
2018-05-29T07:45:28.468Z,22.44
2018-05-29T07:47:56.592Z,22.48
2018-05-29T07:50:24.743Z,22.59
2018-05-29T07:52:52.842Z,22.73
2018-05-29T07:55:21.028Z,22.92
2018-05-29T07:57:49.150Z,23.17
2018-05-29T08:00:17.256Z,23.34
2018-05-29T08:02:45.390Z,23.42
2018-05-29T08:05:13.520Z,23.44
2018-05-29T08:07:41.646Z,23.46
2018-05-29T08:10:09.769Z,23.48
2018-05-29T08:12:38.027Z,23.51
2018-05-29T08:15:06.140Z,23.62
2018-05-29T08:17:34.246Z,23.76
2018-05-29T08:20:02.384Z,23.81
2018-05-29T08:22:30.503Z,23.88
2018-05-29T08:24:58.626Z,23.76
2018-05-29T08:27:26.756Z,23.79
2018-05-29T08:29:54.892Z,23.83
2018-05-29T08:32:23.011Z,23.83
2018-05-29T08:34:51.161Z,23.91
2018-05-29T08:37:19.294Z,23.88
2018-05-29T08:39:47.412Z,23.97
2018-05-29T08:42:15.548Z,24.05
2018-05-29T08:44:43.661Z,24.15
2018-05-29T08:47:11.789Z,24.32
2018-05-29T08:49:39.902Z,24.41
2018-05-29T08:52:09.983Z,24.41
2018-05-29T08:54:38.400Z,24.47
2018-05-29T08:57:06.611Z,24.58
2018-05-29T08:59:34.760Z,24.68
2018-05-29T09:02:02.906Z,24.83
2018-05-29T09:04:31.071Z,25.01
2018-05-29T09:06:59.211Z,25.17
2018-05-29T09:09:27.378Z,25.34
2018-05-29T10:05:34.885Z,27.26
2018-05-29T10:08:03.042Z,27.22
2018-05-29T10:10:31.205Z,27.18
2018-05-29T10:12:59.408Z,27.24
2018-05-29T10:15:27.561Z,27.25
2018-05-29T10:17:55.706Z,27.23
2018-05-29T10:20:23.888Z,27.34
2018-05-29T10:22:52.069Z,27.53
2018-05-29T10:25:20.254Z,27.64
2018-05-29T10:27:48.397Z,27.51
2018-05-29T10:30:16.570Z,27.43
2018-05-29T10:32:44.728Z,27.33
2018-05-29T10:35:12.937Z,27.37
2018-05-29T10:37:41.098Z,27.42
2018-05-29T10:40:09.268Z,27.50
2018-05-29T10:42:37.857Z,27.50
2018-05-29T10:45:06.017Z,27.48
2018-05-29T10:47:34.193Z,27.54
2018-05-29T10:50:02.337Z,27.54
2018-05-29T10:52:30.509Z,27.44
2018-05-29T10:54:58.657Z,27.41
2018-05-29T10:57:26.862Z,27.38
2018-05-29T10:59:55.029Z,27.43
2018-05-29T11:02:23.178Z,27.53
2018-05-29T11:04:51.340Z,27.72
2018-05-29T11:07:20.451Z,27.93
2018-05-29T11:09:50.965Z,28.03
2018-05-29T11:12:19.101Z,27.95
2018-05-29T11:14:47.289Z,27.91
2018-05-29T11:17:16.058Z,27.91
2018-05-29T11:19:44.217Z,27.83
2018-05-29T11:22:13.370Z,27.90
2018-05-29T11:24:41.549Z,27.90
2018-05-29T11:27:11.487Z,27.86
2018-05-29T11:29:46.193Z,27.84
2018-05-29T11:32:20.610Z,27.99
2018-05-29T11:34:48.799Z,28.07
2018-05-29T11:37:16.964Z,28.18
2018-05-29T11:39:45.099Z,28.25
2018-05-29T11:42:13.650Z,28.30
2018-05-29T11:44:41.809Z,28.46
2018-05-29T11:47:09.968Z,28.62
2018-05-29T11:49:38.137Z,28.51
2018-05-29T11:54:57.569Z,28.05
2018-05-29T11:57:25.721Z,27.83
2018-05-29T11:59:53.899Z,27.71
2018-05-29T12:02:23.281Z,27.75
2018-05-29T12:04:51.449Z,27.82
2018-05-29T12:07:19.624Z,27.93
2018-05-29T12:09:50.920Z,28.16
2018-05-29T12:12:25.748Z,28.32
2018-05-29T12:14:53.915Z,28.61
2018-05-29T12:17:23.747Z,28.66
2018-05-29T12:19:51.905Z,28.65
2018-05-29T12:22:20.117Z,28.71
2018-05-29T12:24:48.317Z,28.83
2018-05-29T12:27:17.493Z,29.01
2018-05-29T12:29:45.657Z,29.24
2018-05-29T12:32:13.813Z,29.25
2018-05-29T12:34:41.969Z,29.13
2018-05-29T12:37:14.592Z,29.17
2018-05-29T12:39:42.751Z,29.41
2018-05-29T12:42:10.935Z,29.60
2018-05-29T12:44:39.125Z,29.65
2018-05-29T12:47:07.329Z,29.73
2018-05-29T12:49:35.497Z,29.68
2018-05-29T12:52:03.673Z,29.66
2018-05-29T12:54:32.706Z,29.72
2018-05-29T12:57:00.881Z,29.83
2018-05-29T12:59:29.054Z,29.95
2018-05-29T13:01:57.195Z,30.08
2018-05-29T13:04:26.343Z,30.06
2018-05-29T13:06:58.492Z,29.99
2018-05-29T13:09:26.681Z,29.82
2018-05-29T13:11:54.838Z,29.88
2018-05-29T13:14:25.785Z,29.91
2018-05-29T13:16:54.342Z,30.22
2018-05-29T13:19:22.521Z,30.26
2018-05-29T13:21:50.674Z,30.46
2018-05-29T13:24:18.817Z,30.66
2018-05-29T13:26:46.970Z,30.89
2018-05-29T13:29:15.125Z,30.85
2018-05-29T13:31:44.035Z,30.58
2018-05-29T13:34:13.649Z,30.53
2018-05-29T13:36:41.822Z,30.66
2018-05-29T13:39:14.165Z,30.70
2018-05-29T13:41:42.301Z,30.86
2018-05-29T13:44:17.245Z,31.30
2018-05-29T13:46:45.438Z,31.71
2018-05-29T13:49:13.636Z,31.65
2018-05-29T13:51:41.764Z,31.83
2018-05-29T13:54:09.935Z,31.65
2018-05-29T13:56:38.097Z,32.04
2018-05-29T13:59:06.278Z,32.36
2018-05-29T14:01:34.434Z,32.24
2018-05-29T14:04:02.629Z,32.11
2018-05-29T14:06:32.317Z,31.82
2018-05-29T14:09:01.999Z,31.52
2018-05-29T14:11:30.103Z,31.52
2018-05-29T14:13:58.262Z,31.41
2018-05-29T14:16:27.438Z,31.52
2018-05-29T14:18:55.616Z,31.49
2018-05-29T14:21:23.842Z,31.37
2018-05-29T14:23:52.000Z,31.18
2018-05-29T14:26:20.162Z,31.15
2018-05-29T14:28:48.295Z,31.19
2018-05-29T14:31:16.476Z,31.35
2018-05-29T14:33:44.650Z,31.41
2018-05-29T14:49:34.376Z,31.68
2018-05-29T14:52:04.019Z,31.51
2018-05-29T14:54:32.411Z,31.41
2018-05-29T14:57:07.096Z,31.70
2018-05-29T14:59:38.205Z,31.56
2018-05-29T15:02:10.003Z,31.33
2018-05-29T15:04:39.657Z,31.06
2018-05-29T15:07:08.881Z,30.85
2018-05-29T15:09:37.194Z,30.61
2018-05-29T15:12:06.229Z,30.60
2018-05-29T15:14:34.540Z,30.63
2018-05-29T15:17:02.868Z,30.77
2018-05-29T15:19:31.774Z,30.87
2018-05-29T15:22:02.914Z,31.01
2018-05-29T15:24:34.481Z,31.31
2018-05-29T15:27:02.793Z,31.50
2018-05-29T15:29:32.696Z,31.37
2018-05-29T15:32:02.708Z,31.92
2018-05-29T15:34:32.792Z,32.49
2018-05-29T15:37:04.503Z,32.83
2018-05-29T15:39:32.878Z,33.37
2018-05-29T15:42:02.269Z,33.67
2018-05-29T15:44:30.564Z,33.17
2018-05-29T15:47:00.652Z,32.46
2018-05-29T15:49:28.923Z,32.05
2018-05-29T15:51:57.535Z,31.99
2018-05-29T15:54:26.629Z,31.94
2018-05-29T15:56:54.892Z,31.61
2018-05-29T15:59:26.834Z,31.33
2018-05-29T16:01:55.059Z,31.34
2018-05-29T16:04:27.067Z,31.74
2018-05-29T16:06:55.496Z,32.21
2018-05-29T16:09:23.899Z,32.38
2018-05-29T16:11:53.297Z,32.37
2018-05-29T16:14:22.362Z,32.42
2018-05-29T16:16:50.737Z,32.24
2018-05-29T16:19:21.551Z,32.06
2018-05-29T16:21:49.822Z,31.66
2018-05-29T16:24:22.902Z,31.33
2018-05-29T16:26:51.215Z,31.02
2018-05-29T16:29:21.217Z,30.75
2018-05-29T16:31:50.312Z,30.56
2018-05-29T16:34:20.463Z,30.42
2018-05-29T16:36:48.753Z,30.27
2018-05-29T16:39:18.689Z,30.20
2018-05-29T16:41:48.718Z,30.02
2018-05-29T16:44:16.979Z,29.74
2018-05-29T16:46:45.234Z,29.64
2018-05-29T16:49:15.185Z,29.58
2018-05-29T16:51:44.238Z,29.36
2018-05-29T16:54:12.558Z,29.31
2018-05-29T16:56:41.594Z,29.32
2018-05-29T16:59:09.908Z,29.21
2018-05-29T17:01:38.254Z,29.09
2018-05-29T17:04:07.263Z,29.04
2018-05-29T17:06:35.758Z,29.04
2018-05-29T17:09:04.215Z,29.00
2018-05-29T17:11:33.225Z,29.06
2018-05-29T17:14:01.534Z,29.07
2018-05-29T17:16:29.820Z,29.05
2018-05-29T17:18:58.906Z,29.03
2018-05-29T17:21:29.105Z,28.89
2018-05-29T17:24:02.329Z,28.78
2018-05-29T17:26:32.337Z,28.66
2018-05-29T17:29:01.339Z,28.61
2018-05-29T17:31:30.390Z,28.50
2018-05-29T17:34:00.453Z,28.37
2018-05-29T17:36:30.975Z,28.29
2018-05-29T17:39:07.429Z,28.18
2018-05-29T17:41:39.333Z,28.05
2018-05-29T17:44:09.407Z,27.96
2018-05-29T17:46:39.351Z,27.88
2018-05-29T17:49:08.405Z,27.76
2018-05-29T17:51:37.005Z,27.60
2018-05-29T17:54:06.915Z,27.51
2018-05-29T17:56:37.139Z,27.42
2018-05-29T17:59:06.939Z,27.37
2018-05-29T18:01:37.668Z,27.32
2018-05-29T18:04:08.399Z,27.26
2018-05-29T18:06:38.051Z,27.18
2018-05-29T18:09:10.303Z,27.08
2018-05-29T18:11:47.786Z,26.84
2018-05-29T18:14:17.997Z,26.68
2018-05-29T18:16:46.368Z,26.65
2018-05-29T18:19:14.841Z,26.61
2018-05-29T18:21:45.407Z,26.56
2018-05-29T18:24:15.201Z,26.52
2018-05-29T18:26:44.414Z,26.45
2018-05-29T18:29:14.512Z,26.38
2018-05-29T18:31:45.970Z,26.33
2018-05-29T18:34:14.402Z,26.27
2018-05-29T18:36:42.727Z,26.14
2018-05-29T18:39:12.734Z,26.03
2018-05-29T18:41:41.030Z,25.96
2018-05-29T18:44:09.655Z,25.89
2018-05-29T18:46:38.046Z,25.79
2018-05-29T18:49:06.480Z,25.73
2018-05-29T18:51:34.820Z,25.65
2018-05-29T18:54:03.185Z,25.56
2018-05-29T18:56:32.280Z,25.48
2018-05-29T18:59:02.404Z,25.43
2018-05-29T19:01:31.472Z,25.35
2018-05-29T19:04:00.497Z,25.28
2018-05-29T19:06:30.639Z,25.19
2018-05-29T19:08:58.997Z,25.12
2018-05-29T19:11:29.231Z,25.04
2018-05-29T19:13:57.517Z,24.92
2018-05-29T19:16:26.547Z,24.84
2018-05-29T19:18:54.872Z,24.70
2018-05-29T19:21:28.056Z,24.56
2018-05-29T19:23:56.411Z,24.47
2018-05-29T19:26:26.460Z,24.40
2018-05-29T19:28:58.884Z,24.29
2018-05-29T19:31:28.935Z,24.21
2018-05-29T19:33:57.779Z,24.15
2018-05-29T19:36:26.128Z,24.08
2018-05-29T19:38:55.246Z,24.04
2018-05-29T19:41:23.956Z,23.99
2018-05-29T19:43:54.877Z,23.92
2018-05-29T19:46:26.671Z,23.88
2018-05-29T19:48:55.001Z,23.87
2018-05-29T19:51:23.340Z,23.83
2018-05-29T19:53:53.247Z,23.80
2018-05-29T19:56:24.860Z,23.74
2018-05-29T19:58:55.046Z,23.66
2018-05-29T20:01:23.449Z,23.60
2018-05-29T20:03:53.441Z,23.56
2018-05-29T20:06:22.574Z,23.56
2018-05-29T20:08:51.689Z,23.55
2018-05-29T20:11:27.530Z,23.56
2018-05-29T20:13:57.699Z,23.55
2018-05-29T20:16:25.978Z,23.54
2018-05-29T20:18:55.989Z,23.52
2018-05-29T20:21:26.116Z,23.50
2018-05-29T20:23:54.496Z,23.50
2018-05-29T20:26:25.647Z,23.50
2018-05-29T20:28:54.726Z,23.49
2018-05-29T20:31:23.038Z,23.51
2018-05-29T20:33:53.047Z,23.52
2018-05-29T20:36:22.123Z,23.53
2018-05-29T20:38:50.405Z,23.51
2018-05-29T20:41:20.513Z,23.49
2018-05-29T20:43:48.881Z,23.49
2018-05-29T20:46:17.144Z,23.45
2018-05-29T20:48:46.209Z,23.37
2018-05-29T20:51:16.677Z,23.23
2018-05-29T20:53:44.948Z,23.18
2018-05-29T20:56:14.793Z,23.13
2018-05-29T20:58:43.814Z,23.10
2018-05-29T21:01:12.113Z,23.02
2018-05-29T21:03:40.426Z,22.90
2018-05-29T21:06:08.865Z,22.83
2018-05-29T21:08:37.201Z,22.79
2018-05-29T21:11:05.629Z,22.80
2018-05-29T21:13:36.649Z,22.79
2018-05-29T21:16:07.983Z,22.78
2018-05-29T21:18:37.090Z,22.76
2018-05-29T21:21:06.628Z,22.76
2018-05-29T21:23:36.045Z,22.70
2018-05-29T21:26:06.947Z,22.66
2018-05-29T21:28:35.343Z,22.62
2018-05-29T21:31:05.341Z,22.61
2018-05-29T21:33:35.386Z,22.56
2018-05-29T21:36:05.235Z,22.53
2018-05-29T21:38:33.517Z,22.53
2018-05-29T21:41:04.873Z,22.52
2018-05-29T21:43:33.135Z,22.51
2018-05-29T21:46:01.483Z,22.50
2018-05-29T21:48:30.535Z,22.48
2018-05-29T21:51:00.571Z,22.49
2018-05-29T21:53:28.887Z,22.44
2018-05-29T21:55:57.155Z,22.40
2018-05-29T21:58:25.468Z,22.38
2018-05-29T22:00:54.469Z,22.36
2018-05-29T22:03:25.345Z,22.34
2018-05-29T22:05:53.708Z,22.30
2018-05-29T22:08:22.034Z,22.23
2018-05-29T22:10:50.885Z,22.20
2018-05-29T22:13:19.170Z,22.18
2018-05-29T22:15:47.503Z,22.15
2018-05-29T22:18:16.537Z,22.10
2018-05-29T22:20:45.530Z,22.08
2018-05-29T22:23:15.462Z,22.10
2018-05-29T22:25:44.554Z,22.11
2018-05-29T22:28:14.468Z,22.12
2018-05-29T22:30:44.509Z,22.12
2018-05-29T22:33:14.591Z,22.08
2018-05-29T22:35:43.611Z,22.02
2018-05-29T22:38:12.740Z,21.94
2018-05-29T22:40:43.594Z,21.86
2018-05-29T22:43:11.904Z,21.78
2018-05-29T22:45:40.225Z,21.70
2018-05-29T22:48:09.240Z,21.54
2018-05-29T22:50:37.629Z,21.47
2018-05-29T22:53:07.786Z,21.40
2018-05-29T22:55:36.049Z,21.34
2018-05-29T22:58:05.055Z,21.26
2018-05-29T23:00:34.106Z,21.17
2018-05-29T23:03:02.519Z,21.08
2018-05-29T23:05:33.343Z,20.99
2018-05-29T23:08:04.192Z,20.92
2018-05-29T23:10:39.627Z,20.87
2018-05-29T23:13:07.951Z,20.76
2018-05-29T23:15:36.206Z,20.65
2018-05-29T23:18:04.569Z,20.66
2018-05-29T23:20:32.859Z,20.65
2018-05-29T23:23:02.918Z,20.67
2018-05-29T23:25:31.183Z,20.60
2018-05-29T23:28:01.994Z,20.58
2018-05-29T23:30:30.274Z,20.58
2018-05-29T23:33:00.292Z,20.55
2018-05-29T23:35:30.414Z,20.52
2018-05-29T23:37:58.714Z,20.36
2018-05-29T23:40:27.070Z,20.25
2018-05-29T23:42:55.476Z,20.11
2018-05-29T23:45:26.354Z,20.01
2018-05-29T23:47:54.614Z,19.98
2018-05-29T23:50:26.080Z,19.97
2018-05-29T23:52:56.046Z,19.93
2018-05-29T23:55:25.040Z,19.90
2018-05-29T23:57:55.001Z,19.90
